Time;durP1;ratioP1;P1;durP2;ratioP2;P2;SDS_P1;SDS_P2;PMS_P1;PMS_P2;Temp;Humidity;BMP_temperature;BMP_pressure;BME280_temperature;BME280_humidity;BME280_pressure;Samples;Min_cycle;Max_cycle;Signal;HPM_P1;HPM_P2
2022/03/22 00:01:49;;;;;;;;;28.50;24.50;;;;;13.62;90.57;102484.63;5065708;28;46250;-72
2022/03/22 00:04:15;;;;;;;;;30.25;25.75;;;;;13.57;90.52;102480.94;5070360;28;45481;-73
2022/03/22 00:06:41;;;;;;;;;29.50;24.00;;;;;13.62;90.52;102496.13;5060181;28;52458;-72
2022/03/22 00:09:07;;;;;;;;;25.00;22.00;;;;;13.62;91.04;102493.47;5062601;28;45559;-73
2022/03/22 00:11:33;;;;;;;;;31.25;26.50;;;;;13.58;91.18;102488.97;5062694;28;45684;-73
2022/03/22 00:13:58;;;;;;;;;30.25;25.25;;;;;13.61;90.91;102491.69;5041403;28;45542;-73
2022/03/22 00:16:24;;;;;;;;;26.50;25.50;;;;;13.62;90.91;102500.53;5062256;28;45399;-72
2022/03/22 00:18:49;;;;;;;;;24.00;22.25;;;;;13.56;90.98;102493.31;5060703;28;45485;-72
2022/03/22 00:21:15;;;;;;;;;32.00;25.50;;;;;13.53;91.11;102487.03;5047283;28;63358;-72
2022/03/22 00:23:40;;;;;;;;;25.50;24.00;;;;;13.61;90.77;102497.00;5062712;28;45414;-72
2022/03/22 00:26:05;;;;;;;;;22.50;20.25;;;;;13.51;90.85;102479.03;5040901;28;53749;-73
2022/03/22 00:28:31;;;;;;;;;27.25;22.75;;;;;13.60;90.83;102500.50;5056814;28;51951;-72
2022/03/22 00:30:56;;;;;;;;;25.50;22.25;;;;;13.60;90.89;102494.31;5061777;28;59172;-73
2022/03/22 00:33:22;;;;;;;;;29.50;22.75;;;;;13.60;90.69;102502.25;5055964;28;45357;-72
2022/03/22 00:35:48;;;;;;;;;29.00;25.75;;;;;13.59;90.70;102492.50;5056699;28;53693;-73
2022/03/22 00:38:18;;;;;;;;;29.00;25.50;;;;;13.50;90.73;102484.31;5060308;28;45507;-72
2022/03/22 00:40:44;;;;;;;;;26.25;23.00;;;;;13.49;90.77;102487.84;5061632;28;46016;-72
2022/03/22 00:43:09;;;;;;;;;26.50;23.25;;;;;13.45;90.97;102481.53;5042121;28;45515;-72
2022/03/22 00:45:36;;;;;;;;;31.75;25.25;;;;;13.55;90.97;102504.78;5043544;28;45503;-72
2022/03/22 00:48:02;;;;;;;;;20.00;20.00;;;;;13.48;90.57;102489.59;5063155;28;45313;-72
2022/03/22 00:50:29;;;;;;;;;27.75;22.75;;;;;13.53;90.47;102495.91;5059920;28;47559;-72
2022/03/22 00:52:56;;;;;;;;;23.50;20.00;;;;;13.55;90.36;102501.25;5065481;28;45515;-72
2022/03/22 00:55:23;;;;;;;;;24.75;23.00;;;;;13.42;90.55;102486.75;5045110;28;46689;-72
2022/03/22 00:57:49;;;;;;;;;24.75;20.50;;;;;13.49;90.65;102507.31;5064783;28;45513;-72
2022/03/22 01:00:14;;;;;;;;;27.50;21.25;;;;;13.41;90.41;102490.28;5060299;28;45894;-72
2022/03/22 01:02:44;;;;;;;;;23.50;22.50;;;;;13.42;90.58;102499.13;5062159;28;45434;-72
2022/03/22 01:05:17;;;;;;;;;27.25;21.00;;;;;13.46;90.65;102512.50;5070327;28;45370;-72
2022/03/22 01:07:43;;;;;;;;;30.25;26.25;;;;;13.45;90.35;102507.19;5049386;28;45566;-72
2022/03/22 01:10:09;;;;;;;;;32.25;21.50;;;;;13.47;90.68;102508.09;5060892;28;45954;-72
2022/03/22 01:12:35;;;;;;;;;23.75;21.50;;;;;13.46;90.62;102511.63;5059728;28;45509;-73
2022/03/22 01:15:02;;;;;;;;;24.75;24.00;;;;;13.45;90.32;102502.75;5063863;28;45348;-72
2022/03/22 01:17:29;;;;;;;;;29.25;23.50;;;;;13.42;90.28;102505.31;5060876;28;45409;-73
2022/03/22 01:19:54;;;;;;;;;23.00;20.50;;;;;13.42;90.46;102499.13;5070379;28;46946;-72
2022/03/22 01:22:20;;;;;;;;;23.25;22.75;;;;;13.41;90.37;102508.84;5058935;28;47171;-72
2022/03/22 01:24:45;;;;;;;;;25.25;21.25;;;;;13.25;90.37;102475.69;5052080;28;45351;-72
2022/03/22 01:27:11;;;;;;;;;27.00;21.00;;;;;13.39;90.50;102504.38;5051002;28;45368;-72
2022/03/22 01:29:37;;;;;;;;;23.00;19.75;;;;;13.34;90.45;102498.94;5065768;28;45793;-72
2022/03/22 01:32:04;;;;;;;;;24.50;22.75;;;;;13.34;90.54;102505.13;5065709;28;45286;-72
2022/03/22 01:34:30;;;;;;;;;24.00;22.50;;;;;13.34;90.34;102504.25;5070334;28;45344;-72
2022/03/22 01:36:55;;;;;;;;;29.50;23.75;;;;;13.33;90.47;102497.16;5060310;28;55435;-72
2022/03/22 01:39:20;;;;;;;;;24.75;22.00;;;;;13.25;90.51;102488.97;5057967;28;61533;-72
2022/03/22 01:41:46;;;;;;;;;29.50;26.25;;;;;13.33;90.32;102508.66;5058246;28;56692;-73
2022/03/22 01:44:11;;;;;;;;;24.00;20.00;;;;;13.30;90.39;102502.34;5061233;28;45529;-72
2022/03/22 01:46:37;;;;;;;;;24.00;22.00;;;;;13.31;90.04;102504.16;5048294;28;54394;-72
2022/03/22 01:49:02;;;;;;;;;24.75;20.50;;;;;13.30;89.80;102502.34;5063168;28;46406;-72
2022/03/22 01:51:31;;;;;;;;;26.50;21.00;;;;;13.20;90.11;102479.97;5068611;28;45474;-73
2022/03/22 01:53:57;;;;;;;;;27.75;25.00;;;;;13.19;89.83;102471.97;5064572;28;45253;-72
2022/03/22 01:56:22;;;;;;;;;25.25;21.50;;;;;13.29;89.72;102490.84;5060367;28;45501;-72
2022/03/22 01:58:48;;;;;;;;;22.75;18.75;;;;;13.31;89.39;102486.47;5048396;28;53057;-73
2022/03/22 02:06:43;;;;;;;;;26.00;20.25;;;;;13.27;89.28;102489.94;5058766;28;45451;-72
2022/03/22 02:09:08;;;;;;;;;28.25;26.00;;;;;13.25;88.49;102490.72;5030768;28;45714;-72
2022/03/22 02:11:34;;;;;;;;;26.75;23.00;;;;;13.24;88.45;102481.88;5064555;28;60678;-72
2022/03/22 02:14:00;;;;;;;;;21.00;19.00;;;;;13.24;88.38;102486.28;5038890;28;45202;-73
2022/03/22 02:16:25;;;;;;;;;23.50;19.50;;;;;13.25;88.12;102493.38;5065827;28;45548;-73
2022/03/22 02:18:51;;;;;;;;;25.50;22.25;;;;;13.23;87.69;102479.19;5049639;28;62036;-73
2022/03/22 02:21:18;;;;;;;;;19.25;17.75;;;;;13.22;87.82;102488.00;5064415;28;45348;-73
2022/03/22 02:23:50;;;;;;;;;23.75;18.25;;;;;13.23;87.52;102484.50;5045326;28;45472;-73
2022/03/22 02:26:16;;;;;;;;;21.50;17.75;;;;;13.13;87.57;102464.75;5070696;28;45415;-73
2022/03/22 02:28:43;;;;;;;;;23.25;22.00;;;;;13.19;87.37;102483.47;5046993;28;45961;-72
2022/03/22 02:31:09;;;;;;;;;18.25;17.50;;;;;13.09;86.92;102470.81;5060785;28;45374;-72
2022/03/22 02:33:34;;;;;;;;;23.25;19.75;;;;;13.18;86.79;102487.00;5063663;28;45434;-72
2022/03/22 02:36:00;;;;;;;;;20.50;19.25;;;;;13.20;86.83;102493.22;5061314;28;47267;-73
2022/03/22 02:38:26;;;;;;;;;21.50;19.25;;;;;13.20;86.58;102492.31;5062982;28;46196;-72
2022/03/22 02:40:51;;;;;;;;;20.50;19.25;;;;;13.20;86.41;102487.91;5060655;28;45379;-73
2022/03/22 02:43:17;;;;;;;;;22.50;19.75;;;;;13.16;86.54;102486.06;5061962;28;57977;-73
2022/03/22 02:45:42;;;;;;;;;20.50;17.50;;;;;13.18;86.36;102489.63;5057895;28;45183;-72
2022/03/22 02:48:08;;;;;;;;;24.75;18.75;;;;;13.11;85.85;102485.94;5056346;28;45799;-72
2022/03/22 02:50:33;;;;;;;;;22.25;18.00;;;;;13.11;85.57;102483.28;5065226;28;59169;-72
2022/03/22 02:53:00;;;;;;;;;23.75;19.00;;;;;13.22;85.64;102499.50;5041197;28;45846;-72
2022/03/22 02:55:26;;;;;;;;;19.50;18.75;;;;;13.22;85.26;102480.94;5060331;28;45575;-72
2022/03/22 02:57:51;;;;;;;;;22.00;19.25;;;;;13.23;85.69;102485.38;5064183;28;46264;-72
2022/03/22 03:00:17;;;;;;;;;23.25;20.25;;;;;13.19;85.06;102485.22;5058919;28;62318;-73
2022/03/22 03:02:43;;;;;;;;;17.75;16.25;;;;;13.11;84.78;102475.31;5066506;28;45529;-72
2022/03/22 03:05:09;;;;;;;;;19.75;19.25;;;;;13.23;84.81;102498.66;5041475;28;45569;-72
2022/03/22 03:07:34;;;;;;;;;26.50;18.00;;;;;13.22;84.50;102501.28;5044920;28;47302;-73
2022/03/22 03:10:00;;;;;;;;;16.75;15.50;;;;;13.18;84.44;102497.59;5059922;28;59958;-73
2022/03/22 03:12:25;;;;;;;;;21.00;18.50;;;;;13.09;84.31;102479.66;5068442;28;56010;-72
2022/03/22 03:14:50;;;;;;;;;19.00;18.75;;;;;13.15;84.12;102502.81;5061396;28;55124;-73
2022/03/22 03:17:16;;;;;;;;;19.50;19.50;;;;;13.17;84.30;102510.81;5063274;28;60347;-72
2022/03/22 03:19:41;;;;;;;;;20.75;17.25;;;;;13.14;83.60;102511.63;5058026;28;45341;-72
2022/03/22 03:22:07;;;;;;;;;19.50;18.25;;;;;13.10;83.70;102507.09;5063502;28;45553;-72
2022/03/22 03:24:32;;;;;;;;;21.25;19.50;;;;;13.06;83.64;102500.81;5046613;28;45440;-72
2022/03/22 03:26:58;;;;;;;;;24.25;20.00;;;;;12.98;83.32;102490.84;5045982;28;46005;-72
2022/03/22 03:29:24;;;;;;;;;20.00;18.00;;;;;13.04;83.71;102501.63;5061641;28;45534;-73
2022/03/22 03:31:49;;;;;;;;;27.00;22.75;;;;;13.05;83.79;102512.28;5067722;28;45219;-72
2022/03/22 03:34:18;;;;;;;;;26.25;24.00;;;;;13.04;84.18;102513.13;5064183;28;49034;-73
2022/03/22 03:36:43;;;;;;;;;28.00;21.75;;;;;13.02;83.91;102504.22;5059345;28;46727;-73
2022/03/22 03:39:10;;;;;;;;;27.25;20.75;;;;;13.04;83.90;102514.88;5061743;28;60177;-72
2022/03/22 03:41:53;;;;;;;;;25.25;22.75;;;;;12.91;83.80;102495.09;5035940;28;45367;-73
2022/03/22 03:47:11;;;;;;;;;25.50;23.25;;;;;12.86;83.58;102480.81;5035850;28;45333;-72
2022/03/22 03:49:38;;;;;;;;;23.25;22.75;;;;;12.95;83.59;102506.69;5036637;28;45360;-73
2022/03/22 03:52:05;;;;;;;;;19.75;16.50;;;;;12.83;83.99;102494.84;5036497;28;45414;-73
2022/03/22 03:54:31;;;;;;;;;21.25;18.75;;;;;12.90;83.34;102506.56;5035203;28;45602;-72
2022/03/22 03:56:56;;;;;;;;;27.25;24.25;;;;;12.86;83.20;102512.63;5036421;28;45859;-73
2022/03/22 03:59:21;;;;;;;;;22.75;21.75;;;;;12.82;83.39;102516.91;5035847;28;59630;-72
2022/03/22 04:01:47;;;;;;;;;22.75;18.75;;;;;12.80;83.55;102510.69;5036538;28;56969;-72
2022/03/22 04:04:12;;;;;;;;;26.75;21.50;;;;;12.76;83.56;102519.41;5035270;28;53766;-72
2022/03/22 04:06:38;;;;;;;;;28.00;22.25;;;;;12.76;83.32;102518.50;5035133;28;45553;-72
2022/03/22 04:09:03;;;;;;;;;23.00;20.25;;;;;12.66;83.39;102516.44;5034325;28;57087;-72
2022/03/22 04:11:29;;;;;;;;;26.00;23.25;;;;;12.68;83.13;102526.25;5035762;28;45840;-72
2022/03/22 04:13:54;;;;;;;;;26.75;21.00;;;;;12.55;83.00;102510.81;5042819;28;54338;-72
2022/03/22 04:16:19;;;;;;;;;25.00;21.50;;;;;12.63;83.69;102526.97;5035582;28;46155;-72
2022/03/22 04:18:45;;;;;;;;;22.75;20.50;;;;;12.60;83.43;102527.75;5036002;28;45212;-72
2022/03/22 04:21:11;;;;;;;;;23.50;22.25;;;;;12.58;83.36;102529.47;5035962;28;45316;-72
2022/03/22 04:23:36;;;;;;;;;25.00;19.25;;;;;12.55;82.93;102532.00;5036031;28;45380;-72
2022/03/22 04:26:02;;;;;;;;;23.50;21.00;;;;;12.53;83.02;102531.97;5034849;28;61563;-73
2022/03/22 04:33:56;;;;;;;;;21.00;19.50;;;;;12.39;83.01;102514.75;5035796;28;45248;-72
2022/03/22 04:36:22;;;;;;;;;29.75;23.50;;;;;12.49;83.09;102526.53;5029739;28;59586;-72
2022/03/22 04:38:47;;;;;;;;;19.75;19.75;;;;;12.47;82.62;102533.56;5035545;28;45727;-72
2022/03/22 04:41:13;;;;;;;;;27.50;23.00;;;;;12.46;83.02;102531.72;5040696;28;56895;-72
2022/03/22 04:43:39;;;;;;;;;28.25;23.00;;;;;12.40;82.59;102529.78;5064443;28;45511;-73
2022/03/22 04:46:04;;;;;;;;;21.50;18.25;;;;;12.43;82.59;102526.34;5057425;28;45498;-73
2022/03/22 04:48:29;;;;;;;;;21.00;15.25;;;;;12.36;82.75;102521.69;5038691;28;59832;-72
2022/03/22 04:59:07;;;;;;;;;24.75;19.25;;;;;12.31;82.56;102541.03;5059672;28;45479;-72
2022/03/22 05:01:32;;;;;;;;;21.50;19.00;;;;;12.20;82.68;102536.25;5057379;28;56879;-72
2022/03/22 05:03:58;;;;;;;;;26.00;22.50;;;;;12.28;82.70;102553.25;5043924;28;51689;-72
2022/03/22 05:06:26;;;;;;;;;25.25;21.75;;;;;12.29;82.26;102550.66;5058487;28;63758;-72
2022/03/22 05:08:54;;;;;;;;;22.50;21.50;;;;;12.33;82.11;102562.25;5059537;28;45436;-72
2022/03/22 05:11:20;;;;;;;;;25.50;22.50;;;;;12.35;81.99;102552.59;5058015;28;45293;-72
2022/03/22 05:13:46;;;;;;;;;20.75;17.75;;;;;12.39;81.73;102559.78;5062232;28;45201;-72
2022/03/22 05:16:11;;;;;;;;;26.25;22.00;;;;;12.40;81.08;102558.94;5055774;28;63054;-72
2022/03/22 05:18:36;;;;;;;;;22.75;18.75;;;;;12.45;81.78;102559.06;5065344;28;61445;-72
2022/03/22 05:21:06;;;;;;;;;27.75;22.25;;;;;12.45;81.29;102565.28;5057661;28;45993;-72
2022/03/22 05:23:32;;;;;;;;;22.25;19.50;;;;;12.48;81.23;102562.72;5059715;28;45545;-72
2022/03/22 05:25:58;;;;;;;;;23.25;21.25;;;;;12.46;81.29;102560.88;5059726;28;45675;-72
2022/03/22 05:28:23;;;;;;;;;24.00;21.75;;;;;12.40;81.62;102550.97;5052226;28;60647;-72
2022/03/22 05:30:49;;;;;;;;;25.75;21.25;;;;;12.45;81.22;102565.28;5055659;28;45310;-72
2022/03/22 05:33:14;;;;;;;;;17.75;17.00;;;;;12.45;81.45;102578.53;5040016;28;49615;-72
2022/03/22 05:35:40;;;;;;;;;20.25;20.25;;;;;12.35;81.28;102571.13;5062978;28;46387;-73
2022/03/22 05:38:05;;;;;;;;;25.75;21.25;;;;;12.36;81.18;102578.25;5060301;28;45448;-74
2022/03/22 05:40:31;;;;;;;;;25.25;20.50;;;;;12.35;80.82;102581.72;5192000;22;53685;-73
2022/03/22 05:42:56;;;;;;;;;13.00;13.00;;;;;12.22;80.88;102572.50;5073327;27;45576;-71
2022/03/22 05:45:23;;;;;;;;;27.00;20.25;;;;;12.27;81.12;102585.91;5066448;28;46183;-71
2022/03/22 05:47:49;;;;;;;;;29.50;25.50;;;;;12.24;81.27;102584.03;5076056;27;45330;-72
2022/03/22 05:50:15;;;;;;;;;29.00;21.75;;;;;12.20;81.33;102582.16;5072287;27;45583;-71
2022/03/22 05:52:44;;;;;;;;;28.75;23.00;;;;;12.21;81.04;102596.31;5078319;27;54250;-71
2022/03/22 05:55:09;;;;;;;;;23.50;19.00;;;;;12.23;81.07;102602.53;5078542;27;45680;-73
2022/03/22 05:57:35;;;;;;;;;25.25;20.75;;;;;12.23;81.03;102602.53;5064757;27;45359;-72
2022/03/22 06:00:00;;;;;;;;;29.00;24.75;;;;;12.21;80.97;102591.91;5072700;27;55203;-72
2022/03/22 06:02:26;;;;;;;;;29.50;24.75;;;;;12.21;80.64;102596.31;5039597;28;51906;-72
2022/03/22 06:04:51;;;;;;;;;28.75;24.00;;;;;12.25;80.70;102604.41;5073314;27;46851;-71
2022/03/22 06:07:19;;;;;;;;;26.00;22.25;;;;;12.27;80.01;102607.09;5076653;27;45389;-72
2022/03/22 06:09:46;;;;;;;;;26.25;22.00;;;;;12.25;80.21;102595.53;5080230;27;45462;-72
2022/03/22 06:12:11;;;;;;;;;24.25;21.50;;;;;12.32;80.25;102608.13;5078959;27;45482;-72
2022/03/22 06:14:36;;;;;;;;;27.25;25.00;;;;;12.29;77.62;102608.03;5075006;27;46445;-71
2022/03/22 06:17:02;;;;;;;;;31.00;27.50;;;;;12.21;78.07;102601.59;5059894;28;45384;-73
2022/03/22 06:19:27;;;;;;;;;29.75;25.50;;;;;12.07;76.90;102617.91;5096778;27;45497;-73
2022/03/22 06:21:53;;;;;;;;;27.50;21.50;;;;;12.00;77.39;102617.66;5090552;27;45304;-71
2022/03/22 06:24:18;;;;;;;;;25.00;23.00;;;;;11.89;79.20;102621.69;5085886;27;60643;-73
2022/03/22 06:26:44;;;;;;;;;25.00;23.75;;;;;11.72;79.38;102613.16;5058182;28;59258;-73
2022/03/22 06:29:09;;;;;;;;;26.00;23.50;;;;;11.74;79.02;102624.69;5078278;27;55620;-71
2022/03/22 06:31:35;;;;;;;;;26.75;24.00;;;;;11.71;79.38;102636.03;5073227;27;53099;-73
2022/03/22 06:34:01;;;;;;;;;30.50;26.75;;;;;11.57;79.60;102615.25;5075349;27;46395;-72
2022/03/22 06:36:29;;;;;;;;;25.75;22.50;;;;;11.63;80.26;102634.88;5070611;27;45580;-71
2022/03/22 06:38:55;;;;;;;;;17.00;15.75;;;;;11.62;80.95;102640.13;5059123;28;45530;-70
2022/03/22 06:41:20;;;;;;;;;37.50;27.50;;;;;11.29;80.45;102593.06;5069417;27;53420;-73
2022/03/22 06:43:45;;;;;;;;;31.00;24.00;;;;;11.49;80.05;102636.13;5079071;27;61925;-71
2022/03/22 06:46:11;;;;;;;;;26.75;23.25;;;;;11.54;79.81;102638.09;5062842;27;46642;-71
2022/03/22 06:48:36;;;;;;;;;24.50;21.50;;;;;11.57;80.14;102642.59;5065620;28;45328;-74
2022/03/22 06:51:02;;;;;;;;;29.00;23.00;;;;;11.46;81.22;102629.00;5084928;27;51878;-71
2022/03/22 06:53:27;;;;;;;;;28.50;24.25;;;;;11.57;80.06;102649.66;5067252;27;46337;-72
2022/03/22 06:55:53;;;;;;;;;30.25;24.75;;;;;11.57;80.12;102654.94;5075112;27;58982;-70
2022/03/22 06:58:21;;;;;;;;;27.50;24.75;;;;;11.55;78.71;102653.13;5073101;27;45458;-71
2022/03/22 07:00:47;;;;;;;;;25.25;24.75;;;;;11.44;78.63;102621.84;5075485;27;45353;-70
2022/03/22 07:03:13;;;;;;;;;28.00;24.00;;;;;11.61;77.80;102656.81;5055592;28;45686;-71
2022/03/22 07:05:39;;;;;;;;;32.50;26.50;;;;;11.57;77.83;102636.41;5074710;27;45469;-70
2022/03/22 07:08:04;;;;;;;;;31.25;27.25;;;;;11.68;78.13;102643.88;5064310;28;46036;-71
2022/03/22 07:10:32;;;;;;;;;29.25;23.25;;;;;11.75;78.66;102652.94;5050092;28;45607;-70
2022/03/22 07:13:04;;;;;;;;;36.25;26.50;;;;;11.78;77.54;102632.78;5048502;28;46275;-70
2022/03/22 07:15:38;;;;;;;;;27.75;26.50;;;;;11.98;78.14;102656.41;5055041;28;45547;-70
2022/03/22 07:18:08;;;;;;;;;28.75;26.00;;;;;12.03;78.03;102650.41;5077910;27;45405;-69
2022/03/22 07:20:34;;;;;;;;;33.50;24.75;;;;;12.13;77.49;102649.00;5066747;27;45594;-72
2022/03/22 07:22:59;;;;;;;;;32.25;26.25;;;;;12.19;76.61;102653.59;5066737;27;45636;-71
2022/03/22 07:25:25;;;;;;;;;31.00;28.25;;;;;12.22;76.02;102651.06;5067692;27;46200;-69
2022/03/22 07:27:51;;;;;;;;;32.75;28.25;;;;;12.23;76.24;102643.16;5064643;27;56647;-73
2022/03/22 07:30:16;;;;;;;;;35.75;30.75;;;;;12.35;77.13;102657.66;5050246;28;45577;-74
2022/03/22 07:32:45;;;;;;;;;33.25;27.50;;;;;12.35;76.93;102644.41;5054036;28;47667;-78
2022/03/22 07:35:11;;;;;;;;;36.00;31.50;;;;;12.41;77.02;102645.53;5058662;28;45632;-74
2022/03/22 07:37:36;;;;;;;;;30.75;26.25;;;;;12.56;77.06;102659.25;5071478;27;45651;-74
2022/03/22 07:40:06;;;;;;;;;33.25;30.00;;;;;12.62;76.48;102653.25;5062535;27;54597;-74
2022/03/22 07:42:32;;;;;;;;;32.50;29.00;;;;;12.63;76.14;102652.41;5044085;28;46508;-74
2022/03/22 07:45:01;;;;;;;;;37.25;29.25;;;;;12.66;76.11;102647.19;5045221;28;45541;-74
2022/03/22 07:47:28;;;;;;;;;36.75;31.00;;;;;12.77;75.91;102666.97;5032702;28;45631;-72
2022/03/22 07:55:21;;;;;;;;;33.75;31.50;;;;;12.96;75.73;102676.41;5046227;28;45529;-72
2022/03/22 07:57:47;;;;;;;;;31.50;28.75;;;;;12.93;75.94;102656.84;5041197;28;53913;-72
2022/03/22 08:00:13;;;;;;;;;39.00;31.25;;;;;13.05;75.60;102658.16;5037073;28;47349;-72
2022/03/22 08:02:49;;;;;;;;;34.00;31.25;;;;;13.00;73.39;102645.59;5036445;28;47533;-72
2022/03/22 08:05:15;;;;;;;;;33.25;30.25;;;;;13.17;74.80;102668.22;5042514;28;45558;-72
2022/03/22 08:07:40;;;;;;;;;32.75;27.00;;;;;13.21;74.93;102661.22;5036716;28;57363;-72
2022/03/22 08:10:06;;;;;;;;;30.50;29.00;;;;;13.25;73.88;102668.47;5024410;28;54979;-72
2022/03/22 08:12:32;;;;;;;;;32.75;28.75;;;;;13.29;74.15;102668.59;5037240;28;47513;-71
2022/03/22 08:14:57;;;;;;;;;33.00;29.00;;;;;13.35;74.09;102670.53;5046457;28;45407;-72
2022/03/22 08:17:23;;;;;;;;;37.25;32.25;;;;;13.39;71.95;102682.16;5049537;28;49877;-72
2022/03/22 08:19:49;;;;;;;;;40.75;32.25;;;;;13.41;73.29;102676.00;5034837;28;45520;-72
2022/03/22 08:22:14;;;;;;;;;34.00;29.50;;;;;13.47;73.27;102680.59;5039145;28;55459;-72
2022/03/22 08:24:39;;;;;;;;;40.25;33.00;;;;;13.51;73.87;102679.84;5043095;28;58748;-72
2022/03/22 08:27:07;;;;;;;;;40.00;33.00;;;;;13.55;73.80;102673.75;5050111;28;45710;-72
2022/03/22 08:29:34;;;;;;;;;35.25;31.25;;;;;13.55;73.69;102668.44;5050023;28;45673;-72
2022/03/22 08:31:59;;;;;;;;;36.00;30.50;;;;;13.65;73.68;102678.47;5043637;28;47650;-72
2022/03/22 08:34:25;;;;;;;;;34.00;29.50;;;;;13.68;73.70;102673.22;5047266;28;62865;-71
2022/03/22 08:36:51;;;;;;;;;33.25;28.25;;;;;13.75;72.02;102666.34;5041120;28;45478;-72
2022/03/22 08:39:16;;;;;;;;;37.00;32.00;;;;;13.80;73.04;102668.28;5042044;28;51495;-72
2022/03/22 08:41:42;;;;;;;;;34.50;31.75;;;;;13.76;72.89;102657.53;5046064;28;58798;-72
2022/03/22 08:44:07;;;;;;;;;35.50;30.50;;;;;13.90;72.66;102666.75;5028638;28;60344;-72
2022/03/22 08:46:32;;;;;;;;;33.50;32.00;;;;;13.93;71.81;102668.59;5040111;28;57425;-72
2022/03/22 08:48:58;;;;;;;;;33.50;32.25;;;;;13.99;72.10;102677.63;5048507;28;46879;-72
2022/03/22 08:51:26;;;;;;;;;40.25;31.50;;;;;14.06;72.00;102679.59;5043222;28;47339;-72
2022/03/22 08:53:54;;;;;;;;;33.50;28.50;;;;;14.09;70.79;102674.34;5037231;28;45456;-72
2022/03/22 08:56:22;;;;;;;;;36.25;32.75;;;;;14.09;71.19;102671.69;5039932;28;56279;-72
2022/03/22 08:58:50;;;;;;;;;39.75;32.00;;;;;14.19;67.27;102667.53;5038403;28;45510;-72
2022/03/22 09:01:16;;;;;;;;;33.50;26.00;;;;;14.25;67.79;102677.41;5037355;28;46775;-72
2022/03/22 09:03:41;;;;;;;;;32.25;23.75;;;;;14.26;64.81;102658.84;5036281;28;45507;-72
2022/03/22 09:06:11;;;;;;;;;27.50;21.75;;;;;14.31;63.61;102672.25;5044665;28;54839;-72
2022/03/22 09:08:40;;;;;;;;;28.25;22.75;;;;;14.34;62.48;102667.91;5044418;28;45650;-72
2022/03/22 09:11:06;;;;;;;;;28.00;21.75;;;;;14.25;59.24;102645.53;5017535;28;47493;-75
2022/03/22 09:13:31;;;;;;;;;25.75;23.00;;;;;14.39;60.73;102673.34;5019231;28;47054;-72
2022/03/22 09:15:57;;;;;;;;;23.00;21.25;;;;;14.42;59.81;102663.66;5045047;28;46033;-73
2022/03/22 09:18:22;;;;;;;;;23.25;22.00;;;;;14.38;58.50;102640.56;5041451;28;45467;-73
2022/03/22 09:20:48;;;;;;;;;19.75;18.00;;;;;14.50;57.37;102658.59;5048278;28;46033;-72
2022/03/22 09:23:14;;;;;;;;;19.75;18.00;;;;;14.55;57.64;102661.38;5029485;28;45430;-74
2022/03/22 09:25:43;;;;;;;;;19.25;18.25;;;;;14.60;53.87;102662.38;5037520;28;45590;-73
2022/03/22 09:28:09;;;;;;;;;22.00;18.33;;;;;14.60;56.91;102665.03;5047469;28;45590;-72
2022/03/22 09:30:35;;;;;;;;;21.00;18.50;;;;;14.73;56.34;102672.41;5017290;28;45629;-73
2022/03/22 09:33:04;;;;;;;;;20.75;18.50;;;;;14.76;52.89;102672.50;5015801;28;45358;-73
2022/03/22 09:35:29;;;;;;;;;17.67;17.67;;;;;14.82;47.65;102666.44;5023809;28;45598;-74
2022/03/22 09:37:55;;;;;;;;;16.00;16.00;;;;;14.90;49.64;102670.13;5040536;28;45514;-75
2022/03/22 09:40:21;;;;;;;;;16.67;15.00;;;;;14.95;46.17;102673.81;5045588;28;50892;-72
2022/03/22 09:42:47;;;;;;;;;18.67;16.67;;;;;15.01;45.30;102660.63;5026445;28;45528;-72
2022/03/22 09:45:17;;;;;;;;;22.33;18.33;;;;;15.06;44.12;102677.59;5043780;28;45329;-72
2022/03/22 09:47:44;;;;;;;;;14.67;14.33;;;;;15.06;43.90;102664.28;5044357;28;45500;-72
2022/03/22 09:50:10;;;;;;;;;19.33;15.00;;;;;15.11;43.19;102656.41;5045222;28;46399;-72
2022/03/22 09:52:35;;;;;;;;;17.33;17.33;;;;;15.12;44.35;102642.25;5032637;28;45543;-73
2022/03/22 09:55:01;;;;;;;;;15.00;15.00;;;;;15.29;45.17;102672.78;5034951;28;45448;-74
2022/03/22 09:57:27;;;;;;;;;20.67;18.00;;;;;15.24;41.72;102649.63;5030599;28;45195;-74
2022/03/22 09:59:53;;;;;;;;;21.67;14.67;;;;;15.35;44.10;102664.03;5023488;28;46095;-73
2022/03/22 10:02:29;;;;;;;;;16.67;15.67;;;;;15.35;42.62;102654.28;5040679;28;55469;-74
2022/03/22 10:04:54;;;;;;;;;14.67;14.33;;;;;15.44;43.42;102664.19;5052129;28;45540;-74
2022/03/22 10:07:21;;;;;;;;;17.67;15.67;;;;;15.50;39.54;102664.34;5021095;28;45548;-75
2022/03/22 10:10:06;;;;;;;;;18.33;15.33;;;;;15.53;41.70;102659.06;5010251;28;47752;-74
2022/03/22 10:12:32;;;;;;;;;17.00;13.67;;;;;15.56;42.69;102658.25;5040126;28;46654;-74
2022/03/22 10:15:11;;;;;;;;;18.33;15.67;;;;;15.64;38.66;102667.31;5029254;28;45190;-73
2022/03/22 10:17:37;;;;;;;;;15.33;14.00;;;;;15.62;39.96;102656.59;5029334;28;46009;-73
2022/03/22 10:20:02;;;;;;;;;17.33;15.67;;;;;15.71;40.35;102662.16;5024568;28;46332;-76
2022/03/22 10:22:28;;;;;;;;;18.00;15.33;;;;;15.74;40.86;102644.41;5028776;28;45490;-76
2022/03/22 10:24:57;;;;;;;;;19.00;17.67;;;;;15.81;37.92;102659.63;5027748;28;54581;-74
2022/03/22 10:27:23;;;;;;;;;19.00;15.00;;;;;15.82;40.36;102648.09;5020009;28;45583;-74
2022/03/22 10:29:49;;;;;;;;;16.00;15.25;;;;;15.84;39.08;102641.06;5038740;28;46265;-75
2022/03/22 10:32:14;;;;;;;;;21.67;18.33;;;;;15.92;40.09;102645.63;5021990;28;45187;-77
2022/03/22 10:34:40;;;;;;;;;18.67;16.67;;;;;15.95;36.32;102645.69;5022463;28;45487;-80
2022/03/22 10:37:05;;;;;;;;;19.00;16.00;;;;;15.96;38.77;102647.50;5017457;28;51947;-77
2022/03/22 10:39:33;;;;;;;;;17.33;15.00;;;;;16.02;38.02;102654.69;5045605;28;45743;-75
2022/03/22 10:42:04;;;;;;;;;17.00;17.00;;;;;16.04;37.57;102638.75;5021410;28;45584;-75
2022/03/22 10:44:34;;;;;;;;;19.67;15.33;;;;;16.09;38.84;102640.63;5045014;28;45575;-75
2022/03/22 10:47:02;;;;;;;;;19.00;14.00;;;;;16.13;40.38;102645.09;5013429;28;45678;-75
2022/03/22 10:49:27;;;;;;;;;17.00;14.67;;;;;16.19;38.29;102637.25;5043870;28;45971;-76
2022/03/22 10:51:53;;;;;;;;;16.00;15.67;;;;;16.27;39.86;102642.69;5044227;28;45392;-75
2022/03/22 10:54:19;;;;;;;;;18.67;14.00;;;;;16.26;40.02;102627.56;5025411;28;45378;-79
2022/03/22 10:56:51;;;;;;;;;16.67;14.67;;;;;16.43;40.07;102643.84;5022629;28;45547;-77
2022/03/22 10:59:18;;;;;;;;;16.33;16.33;;;;;16.47;38.47;102633.25;5050824;28;45444;-75
2022/03/22 11:01:44;;;;;;;;;16.67;14.33;;;;;16.56;38.77;102640.47;5023633;28;45518;-76
2022/03/22 11:04:10;;;;;;;;;15.33;14.33;;;;;16.56;38.84;102632.47;5034576;28;45550;-77
2022/03/22 11:06:37;;;;;;;;;18.33;15.67;;;;;16.67;38.36;102630.88;5033300;28;45967;-79
2022/03/22 11:09:03;;;;;;;;;20.67;17.67;;;;;16.71;37.33;102622.06;5001908;28;47567;-74
2022/03/22 11:11:30;;;;;;;;;19.00;16.33;;;;;16.75;39.29;102610.56;5042013;28;45463;-74
2022/03/22 11:13:55;;;;;;;;;22.00;17.00;;;;;16.85;35.71;102624.06;5037300;28;45441;-76
2022/03/22 11:16:22;;;;;;;;;21.33;18.33;;;;;16.94;38.26;102624.19;5042192;28;45782;-74
2022/03/22 11:18:48;;;;;;;;;18.33;16.00;;;;;16.91;38.15;102608.13;5016442;28;46085;-73
2022/03/22 11:21:16;;;;;;;;;16.00;15.00;;;;;17.02;35.31;102622.50;5027767;28;45477;-75
2022/03/22 11:23:44;;;;;;;;;21.33;16.00;;;;;17.10;34.46;102618.16;5042509;28;47267;-73
2022/03/22 11:26:11;;;;;;;;;19.33;16.00;;;;;17.16;37.44;102614.69;5042184;28;45606;-75
2022/03/22 11:28:38;;;;;;;;;19.33;19.00;;;;;17.17;39.04;102612.00;5022788;28;47622;-75
2022/03/22 11:31:05;;;;;;;;;22.67;17.33;;;;;17.28;38.13;102615.69;5029365;28;45450;-74
2022/03/22 11:36:15;;;;;;;;;19.67;16.67;;;;;17.42;36.52;102610.53;5028641;28;45508;-74